Enter the Airport ICAO Code

Search by Airport or City

Current Weather

SABE | Jorge Newbery Airpark

Buenos Aires, Argentina

Last Update 46 Minutes Ago

Clear Sky

Temperature of 17 ēC

Light to Moderate Winds from South

Temperature

17 ēC

Dew Point Temperature

13 ēC

Relative Humidity

77.41 %

Wind Direction

South (180ē, Without Significant Variations)

Wind Velocity

9 km/h (05 kt)

Gusts

None

Visibility

No Significant Reductions

Sea Level Pressure

1017 hPa (Hectopascals)

Layers of Clouds

None

METAR SABE 090900Z 18005KT CAVOK 17/13 Q1017 NOSIG

Weather Forecast

SABE | Jorge Newbery Airpark

Buenos Aires, Argentina

Forecast valid for the next 20 Hours

From now on it is expected:

Clear Sky

Moderate Winds from SouthEast

In 7 to 9 hours it is expected the begining of:

Moderate Winds from East

Maximum Temperature

27 ēC in 8 Hours

Minimum Temperature

17 ēC in -1 Hours

TAF SABE 090500Z 0906/1006 14010KT CAVOK TX27/0918Z TN17/0909Z BECMG 0917/0919 09015KT